.
WxDataArchive / Data Records for 2013-03-24
2013-03-23 March 2013 2013-03-25

Data Records for Sunday, 24 March 2013

Time	Temp	Chill	HIndex	Humid	Dewpt	 Wind 	HiWind	WindDir	Rain 	Barom 
-----	----	-----	------	-----	-----	------	------	-------	-----	----- 
00:00	30.6	26.5	30.6	73	23.0	4	9	90	0.00	29.998 
00:05	30.6	30.6	30.6	73	23.0	2	6	90	0.00	29.998 
00:10	30.3	30.3	30.3	74	23.0	2	6	112	0.00	29.998 
00:15	30.1	30.1	30.1	74	22.8	3	12	112	0.00	29.991 
00:20	30.1	30.1	30.1	75	23.2	2	7	90	0.00	29.991 
00:25	29.8	29.8	29.8	75	22.9	3	9	90	0.00	29.991 
00:30	29.7	29.7	29.7	76	23.1	3	8	112	0.00	29.986 
00:35	29.5	29.5	29.5	76	22.9	1	4	112	0.00	29.986 
00:40	29.4	29.4	29.4	77	23.1	2	6	112	0.00	29.986 
00:45	29.3	29.3	29.3	77	23.0	2	8	112	0.00	29.980 
00:50	29.1	29.1	29.1	77	22.8	2	5	112	0.00	29.980 
00:55	29.0	29.0	29.0	78	23.0	2	7	112	0.00	29.980 
01:00	29.0	29.0	29.0	78	23.0	1	7	90	0.00	29.989 
01:05	28.8	28.8	28.8	78	22.8	1	6	90	0.00	29.989 
01:10	28.8	28.8	28.8	78	22.8	3	13	112	0.00	29.989 
01:15	28.8	28.8	28.8	78	22.8	2	5	112	0.00	30.005 
01:20	28.7	28.7	28.7	78	22.7	2	7	90	0.00	30.005 
01:25	28.7	28.7	28.7	78	22.7	2	6	112	0.00	30.005 
01:30	28.5	28.5	28.5	78	22.5	1	5	90	0.00	29.996 
01:35	28.4	28.4	28.4	79	22.7	0	2	90	0.00	29.996 
01:40	28.2	28.2	28.2	79	22.5	1	3	90	0.00	29.996 
01:45	28.1	28.1	28.1	79	22.4	1	3	90	0.00	29.982 
01:50	27.9	27.9	27.9	80	22.5	1	4	90	0.00	29.982 
01:55	27.9	27.9	27.9	80	22.5	1	5	90	0.00	29.982 
02:00	27.9	27.9	27.9	80	22.5	1	3	90	0.00	29.974 
02:05	27.9	27.9	27.9	80	22.5	1	4	90	0.00	29.974 
02:10	27.9	27.9	27.9	80	22.5	1	4	45	0.00	29.974 
02:15	28.1	28.1	28.1	79	22.4	1	5	112	0.00	29.986 
02:20	27.9	27.9	27.9	79	22.2	1	3	112	0.00	29.986 
02:25	27.9	27.9	27.9	79	22.2	0	3	90	0.00	29.986 
02:30	27.9	27.9	27.9	80	22.5	1	4	90	0.00	29.978 
02:35	27.9	27.9	27.9	80	22.5	1	5	112	0.00	29.978 
02:40	27.9	27.9	27.9	80	22.5	1	3	112	0.00	29.978 
02:45	27.8	27.8	27.8	80	22.4	1	3	112	0.00	29.976 
02:50	27.8	27.8	27.8	80	22.4	1	4	112	0.00	29.976 
02:55	27.8	27.8	27.8	80	22.4	0	2	112	0.00	29.976 
03:00	27.8	27.8	27.8	80	22.4	0	2	112	0.00	29.982 
03:05	27.8	27.8	27.8	80	22.4	0	3	112	0.00	29.982 
03:10	27.6	27.6	27.6	80	22.3	1	4	112	0.00	29.982 
03:15	27.6	27.6	27.6	80	22.3	0	3	112	0.00	29.989 
03:20	27.6	27.6	27.6	80	22.3	0	2	112	0.00	29.989 
03:25	27.5	27.5	27.5	80	22.2	0	3	112	0.00	29.989 
03:30	27.5	27.5	27.5	81	22.4	0	3	112	0.00	29.996 
03:35	27.5	27.5	27.5	81	22.4	1	3	112	0.00	29.996 
03:40	27.5	27.5	27.5	81	22.4	0	2	112	0.00	29.996 
03:45	27.5	27.5	27.5	81	22.4	0	3	112	0.00	29.994 
03:50	27.5	27.5	27.5	81	22.4	1	3	112	0.00	29.994 
03:55	27.5	27.5	27.5	81	22.4	0	3	112	0.00	29.994 
04:00	27.5	27.5	27.5	81	22.4	1	3	112	0.00	29.983 
04:05	27.5	27.5	27.5	81	22.4	1	3	112	0.00	29.983 
04:10	27.5	27.5	27.5	81	22.4	1	5	90	0.00	29.983 
04:15	27.5	27.5	27.5	81	22.4	1	4	90	0.00	29.968 
04:20	27.5	27.5	27.5	81	22.4	1	5	90	0.00	29.968 
04:25	27.5	27.5	27.5	81	22.4	0	3	90	0.00	29.968 
04:30	27.6	27.6	27.6	80	22.3	1	5	90	0.00	29.966 
04:35	27.6	27.6	27.6	80	22.3	1	3	90	0.00	29.966 
04:40	27.8	27.8	27.8	80	22.4	2	5	90	0.00	29.966 
04:45	27.8	27.8	27.8	80	22.4	1	5	90	0.00	29.966 
04:50	27.8	27.8	27.8	80	22.4	1	4	22	0.00	29.966 
04:55	27.8	27.8	27.8	80	22.4	1	3	135	0.00	29.966 
05:00	27.8	27.8	27.8	80	22.4	1	4	112	0.00	29.955 
05:05	27.8	27.8	27.8	80	22.4	2	6	90	0.00	29.955 
05:10	27.8	27.8	27.8	80	22.4	2	9	112	0.00	29.955 
05:15	27.9	27.9	27.9	80	22.5	3	6	112	0.00	29.955 
05:20	27.9	27.9	27.9	80	22.5	1	5	112	0.00	29.955 
05:25	27.9	27.9	27.9	80	22.5	1	5	112	0.00	29.955 
05:30	27.9	27.9	27.9	80	22.5	2	6	112	0.00	29.956 
05:35	28.1	28.1	28.1	80	22.7	2	6	112	0.00	29.956 
05:40	28.1	28.1	28.1	79	22.4	1	4	112	0.00	29.956 
05:45	28.1	28.1	28.1	79	22.4	1	4	90	0.00	29.950 
05:50	28.1	28.1	28.1	80	22.7	1	4	90	0.00	29.950 
05:55	28.1	28.1	28.1	80	22.7	2	7	90	0.00	29.950 
06:00	28.1	28.1	28.1	79	22.4	2	7	90	0.00	29.938 
06:05	28.1	28.1	28.1	80	22.7	2	6	90	0.00	29.938 
06:10	28.1	28.1	28.1	80	22.7	1	5	90	0.00	29.938 
06:15	28.1	28.1	28.1	80	22.7	2	8	90	0.00	29.937 
06:20	28.1	28.1	28.1	80	22.7	2	6	112	0.00	29.937 
06:25	28.1	28.1	28.1	80	22.7	2	6	112	0.00	29.937 
06:30	28.1	28.1	28.1	80	22.7	2	12	90	0.00	29.931 
06:35	28.1	28.1	28.1	80	22.7	3	8	90	0.00	29.931 
06:40	28.1	28.1	28.1	80	22.7	3	9	90	0.00	29.931 
06:45	28.1	28.1	28.1	80	22.7	3	7	90	0.00	29.925 
06:50	28.1	28.1	28.1	80	22.7	1	6	90	0.00	29.925 
06:55	28.2	28.2	28.2	81	23.1	3	7	68	0.00	29.925 
07:00	28.2	28.2	28.2	81	23.1	2	6	90	0.00	29.921 
07:05	28.2	23.7	28.2	81	23.1	4	11	90	0.00	29.921 
07:10	28.2	23.7	28.2	81	23.1	4	11	112	0.00	29.921 
07:15	28.2	28.2	28.2	81	23.1	2	5	112	0.00	29.926 
07:20	28.2	28.2	28.2	81	23.1	3	8	90	0.00	29.926 
07:25	28.2	28.2	28.2	81	23.1	3	10	90	0.00	29.926 
07:30	28.2	23.7	28.2	81	23.1	4	9	90	0.00	29.915 
07:35	28.2	28.2	28.2	82	23.4	3	11	90	0.00	29.915 
07:40	28.2	23.7	28.2	82	23.4	4	9	112	0.00	29.915 
07:45	28.2	28.2	28.2	82	23.4	3	10	112	0.00	29.915 
07:50	28.4	28.4	28.4	82	23.6	3	7	90	0.00	29.915 
07:55	28.4	28.4	28.4	82	23.6	3	7	90	0.00	29.915 
08:00	28.4	28.4	28.4	82	23.6	3	10	90	0.00	29.912 
08:05	28.4	28.4	28.4	82	23.6	3	10	112	0.00	29.912 
08:10	28.5	24.0	28.5	82	23.7	4	10	90	0.00	29.912 
08:15	28.5	28.5	28.5	83	24.0	3	10	112	0.00	29.910 
08:20	28.5	23.0	28.5	83	24.0	5	12	90	0.00	29.910 
08:25	28.7	24.3	28.7	83	24.2	4	10	112	0.00	29.910 
08:30	28.7	24.3	28.7	82	23.9	4	13	112	0.00	29.899 
08:35	28.7	28.7	28.7	82	23.9	3	12	90	0.00	29.899 
08:40	28.7	23.2	28.7	82	23.9	5	14	90	0.00	29.899 
08:45	28.8	24.4	28.8	82	24.0	4	11	112	0.00	29.896 
08:50	28.8	24.4	28.8	82	24.0	4	11	90	0.00	29.896 
08:55	29.0	24.6	29.0	82	24.2	4	10	112	0.00	29.896 
09:00	29.1	22.8	29.1	81	24.0	6	13	112	0.00	29.888 
09:05	29.3	23.0	29.3	82	24.5	6	15	112	0.00	29.888 
09:10	29.4	29.4	29.4	82	24.6	2	9	90	0.00	29.888 
09:15	29.5	25.2	29.5	82	24.7	4	8	112	0.00	29.894 
09:20	29.5	29.5	29.5	82	24.7	3	11	90	0.00	29.894 
09:25	29.7	25.4	29.7	83	25.2	4	10	90	0.00	29.894 
09:30	29.7	25.4	29.7	83	25.2	4	11	112	0.00	29.885 
09:35	29.7	24.4	29.7	83	25.2	5	13	112	0.00	29.885 
09:40	29.8	25.5	29.8	83	25.3	4	12	112	0.00	29.885 
09:45	29.8	25.5	29.8	82	25.0	4	13	90	0.00	29.880 
09:50	30.0	30.0	30.0	82	25.2	3	13	90	0.00	29.880 
09:55	30.0	30.0	30.0	82	25.2	3	9	90	0.00	29.880 
10:00	30.1	25.9	30.1	82	25.3	4	12	112	0.00	29.877 
10:05	30.1	25.9	30.1	82	25.3	4	11	112	0.00	29.877 
10:10	30.3	25.1	30.3	81	25.2	5	13	112	0.00	29.877 
10:15	30.1	24.8	30.1	81	25.0	5	11	112	0.00	29.867 
10:20	30.3	26.1	30.3	81	25.2	4	11	112	0.00	29.867 
10:25	30.4	30.4	30.4	81	25.3	2	9	112	0.00	29.867 
10:30	30.6	30.6	30.6	81	25.5	3	9	112	0.00	29.857 
10:35	30.6	26.5	30.6	81	25.5	4	11	112	0.00	29.857 
10:40	30.6	25.4	30.6	81	25.5	5	12	112	0.00	29.857 
10:45	30.7	26.6	30.7	81	25.6	4	10	90	0.00	29.845 
10:50	30.7	26.6	30.7	81	25.6	4	11	112	0.00	29.845 
10:55	30.7	25.5	30.7	80	25.3	5	13	112	0.00	29.845 
11:00	30.9	26.8	30.9	80	25.5	4	11	90	0.00	29.837 
11:05	31.0	31.0	31.0	80	25.6	3	9	68	0.00	29.837 
11:10	31.2	31.2	31.2	80	25.8	2	7	112	0.00	29.837 
11:15	31.3	27.3	31.3	79	25.6	4	13	90	0.00	29.836 
11:20	31.5	31.5	31.5	79	25.8	3	11	90	0.00	29.836 
11:25	31.5	31.5	31.5	79	25.8	2	9	112	0.00	29.836 
11:30	31.6	31.6	31.6	78	25.5	3	14	112	0.00	29.831 
11:35	31.6	31.6	31.6	78	25.5	3	7	112	0.00	29.831 
11:40	31.8	27.8	31.8	77	25.4	4	12	90	0.00	29.831 
11:45	31.9	27.0	31.9	76	25.2	5	13	112	0.00	29.831 
11:50	31.9	26.1	31.9	75	24.9	6	13	112	0.00	29.831 
11:55	32.1	26.3	32.1	76	25.4	6	13	112	0.00	29.831 
12:00	32.4	27.5	32.4	75	25.4	5	16	90	0.00	29.805 
12:05	32.5	26.8	32.5	75	25.5	6	16	112	0.00	29.805 
12:10	32.7	26.3	32.7	74	25.3	7	16	112	0.00	29.805 
12:15	32.8	26.5	32.8	73	25.1	7	14	112	0.00	29.789 
12:20	32.9	27.3	32.9	73	25.2	6	13	112	0.00	29.789 
12:25	32.9	27.3	32.9	73	25.2	6	20	112	0.00	29.789 
12:30	32.8	25.8	32.8	72	24.8	8	20	112	0.00	29.784 
12:35	32.8	25.8	32.8	72	24.8	8	18	112	0.00	29.784 
12:40	32.9	25.4	32.9	71	24.5	9	17	112	0.00	29.784 
12:45	33.2	33.2	33.2	72	25.2	3	7	90	0.00	29.773 
12:50	33.4	27.9	33.4	70	24.7	6	15	112	0.00	29.773 
12:55	33.4	27.2	33.4	70	24.7	7	18	112	0.00	29.773 
13:00	33.4	26.0	33.4	69	24.3	9	17	112	0.00	29.771 
13:05	33.5	28.0	33.5	69	24.4	6	16	90	0.00	29.771 
13:10	33.5	28.0	33.5	69	24.4	6	14	90	0.00	29.771 
13:15	33.4	26.0	33.4	68	24.0	9	17	112	0.00	29.769 
13:20	33.4	26.6	33.4	68	24.0	8	17	90	0.00	29.769 
13:25	33.5	28.8	33.5	68	24.1	5	16	90	0.00	29.769 
13:30	33.7	29.1	33.7	67	23.9	5	15	90	0.00	29.759 
13:35	33.8	28.4	33.8	67	24.0	6	17	112	0.00	29.759 
13:40	33.8	29.2	33.8	67	24.0	5	16	112	0.00	29.759 
13:45	33.7	26.3	33.7	65	23.2	9	17	90	0.00	29.751 
13:50	33.7	27.5	33.7	65	23.2	7	16	112	0.00	29.751 
13:55	33.8	28.4	33.8	64	22.9	6	14	112	0.00	29.751 
14:00	33.8	28.4	33.8	63	22.6	6	13	112	0.00	29.750 
14:05	33.8	30.2	33.8	62	22.2	4	12	112	0.00	29.750 
14:10	34.0	30.4	34.0	62	22.4	4	14	90	0.00	29.750 
14:15	34.1	30.5	34.1	62	22.5	4	12	112	0.00	29.756 
14:20	33.8	28.4	33.8	62	22.2	6	14	90	0.00	29.756 
14:25	33.8	28.4	33.8	63	22.6	6	13	90	0.00	29.756 
14:30	33.8	27.0	33.8	62	22.2	8	16	90	0.00	29.741 
14:35	33.7	26.3	33.7	62	22.1	9	21	112	0.00	29.741 
14:40	33.8	29.2	33.8	63	22.6	5	13	90	0.00	29.741 
14:45	34.0	26.7	34.0	62	22.4	9	19	112	0.00	29.726 
14:50	34.1	27.4	34.1	62	22.5	8	18	90	0.00	29.726 
14:55	34.3	28.3	34.3	62	22.7	7	17	112	0.00	29.726 
15:00	34.3	27.6	34.3	62	22.7	8	20	112	0.00	29.710 
15:05	34.6	30.1	34.6	63	23.3	5	15	90	0.00	29.710 
15:10	34.7	27.6	34.7	62	23.0	9	20	112	0.00	29.710 
15:15	34.6	26.9	34.6	62	22.9	10	17	90	0.00	29.702 
15:20	34.6	28.6	34.6	63	23.3	7	16	112	0.00	29.702 
15:25	34.7	28.8	34.7	61	22.6	7	22	90	0.00	29.702 
15:30	35.0	29.1	35.0	59	22.1	7	24	90	0.00	29.695 
15:35	35.0	27.9	35.0	57	21.3	9	19	90	0.00	29.695 
15:40	34.9	28.4	34.9	58	21.6	8	19	112	0.00	29.695 
15:45	34.7	27.6	34.7	58	21.5	9	20	112	0.00	29.684 
15:50	34.9	27.8	34.9	57	21.2	9	19	112	0.00	29.684 
15:55	34.9	27.3	34.9	58	21.6	10	28	112	0.00	29.684 
16:00	35.0	27.0	35.0	58	21.7	11	22	112	0.00	29.648 
16:05	35.2	26.8	35.2	57	21.5	12	25	112	0.00	29.648 
16:10	35.6	27.7	35.6	58	22.3	11	19	112	0.00	29.648 
16:15	36.0	30.3	36.0	59	23.1	7	15	90	0.00	29.630 
16:20	36.2	30.0	36.2	57	22.5	8	20	112	0.00	29.630 
16:25	35.9	29.6	35.9	58	22.6	8	26	90	0.00	29.630 
16:30	35.8	29.5	35.8	57	22.1	8	19	112	0.00	29.633 
16:35	35.8	28.4	35.8	57	22.1	10	21	112	0.00	29.633 
16:40	35.6	29.2	35.6	57	21.9	8	18	112	0.00	29.633 
16:45	35.5	28.6	35.5	56	21.4	9	18	112	0.00	29.638 
16:50	35.0	27.0	35.0	57	21.3	11	24	112	0.00	29.638 
16:55	34.7	27.1	34.7	57	21.0	10	19	112	0.00	29.638 
17:00	34.6	26.9	34.6	57	21.0	10	18	112	0.00	29.632 
17:05	34.6	26.5	34.6	57	21.0	11	27	112	0.00	29.632 
17:10	34.6	27.5	34.6	56	20.5	9	21	112	0.00	29.632 
17:15	34.6	28.6	34.6	57	21.0	7	17	112	0.00	29.615 
17:20	34.6	26.9	34.6	55	20.1	10	22	112	0.00	29.615 
17:25	34.4	27.8	34.4	54	19.5	8	17	112	0.00	29.615 
17:30	34.3	26.6	34.3	55	19.8	10	23	112	0.00	29.615 
17:35	34.3	27.6	34.3	55	19.8	8	19	112	0.00	29.615 
17:40	34.3	28.3	34.3	56	20.3	7	16	112	0.00	29.615 
17:45	34.3	27.6	34.3	56	20.3	8	15	112	0.00	29.602 
17:50	34.1	28.0	34.1	57	20.5	7	18	112	0.00	29.602 
17:55	34.1	28.7	34.1	57	20.5	6	14	90	0.00	29.602 
18:00	34.1	27.4	34.1	58	20.9	8	18	112	0.00	29.600 
18:05	34.1	29.5	34.1	58	20.9	5	16	90	0.00	29.600 
18:10	34.0	26.7	34.0	58	20.8	9	17	112	0.00	29.600 
18:15	33.8	27.7	33.8	59	21.0	7	21	112	0.00	29.599 
18:20	33.8	26.5	33.8	59	21.0	9	24	112	0.00	29.599 
18:25	33.7	26.3	33.7	59	20.9	9	20	112	0.00	29.599 
18:30	33.7	26.9	33.7	60	21.3	8	20	112	0.00	29.599 
18:35	33.7	26.9	33.7	60	21.3	8	19	112	0.00	29.599 
18:40	33.7	29.1	33.7	61	21.7	5	15	90	0.00	29.599 
18:45	33.5	26.7	33.5	61	21.5	8	19	112	0.00	29.597 
18:50	33.4	26.6	33.4	61	21.4	8	16	112	0.00	29.597 
18:55	33.4	25.5	33.4	60	21.0	10	23	112	0.00	29.597 
19:00	33.2	26.9	33.2	61	21.2	7	19	90	0.00	29.586 
19:05	33.2	28.5	33.2	62	21.6	5	12	90	0.00	29.586 
19:10	33.1	26.8	33.1	62	21.5	7	17	112	0.00	29.586 
19:15	33.1	29.3	33.1	62	21.5	4	11	112	0.00	29.590 
19:20	33.1	27.5	33.1	62	21.5	6	18	112	0.00	29.590 
19:25	33.1	26.8	33.1	62	21.5	7	19	112	0.00	29.590 
19:30	33.1	26.8	33.1	63	21.9	7	17	112	0.00	29.585 
19:35	32.9	27.3	32.9	63	21.7	6	19	112	0.00	29.585 
19:40	32.9	28.1	32.9	64	22.1	5	17	112	0.00	29.585 
19:45	32.9	27.3	32.9	64	22.1	6	18	112	0.00	29.578 
19:50	32.9	26.6	32.9	64	22.1	7	18	112	0.00	29.578 
19:55	32.9	25.9	32.9	65	22.4	8	18	90	0.00	29.578 
20:00	32.9	27.3	32.9	65	22.4	6	17	112	0.00	29.578 
20:05	32.8	27.2	32.8	65	22.3	6	19	112	0.00	29.578 
20:10	32.8	28.0	32.8	66	22.7	5	18	90	0.00	29.578 
20:15	32.8	27.2	32.8	66	22.7	6	17	112	0.00	29.570 
20:20	32.8	27.2	32.8	66	22.7	6	21	90	0.00	29.570 
20:25	32.8	27.2	32.8	66	22.7	6	19	90	0.00	29.570 
20:30	32.8	26.5	32.8	66	22.7	7	19	90	0.00	29.570 
20:35	32.8	25.2	32.8	66	22.7	9	25	112	0.00	29.570 
20:40	32.8	27.2	32.8	66	22.7	6	17	90	0.00	29.570 
20:45	32.7	28.9	32.7	67	23.0	4	10	112	0.00	29.575 
20:50	32.7	27.9	32.7	67	23.0	5	13	90	0.00	29.575 
20:55	32.7	27.9	32.7	67	23.0	5	20	112	0.00	29.575 
21:00	32.7	27.1	32.7	67	23.0	6	15	112	0.00	29.582 
21:05	32.7	26.3	32.7	67	23.0	7	16	112	0.00	29.582 
21:10	32.5	27.7	32.5	67	22.8	5	16	90	0.00	29.582 
21:15	32.5	25.5	32.5	67	22.8	8	19	112	0.00	29.596 
21:20	32.5	28.7	32.5	68	23.1	4	11	90	0.00	29.596 
21:25	32.4	27.5	32.4	68	23.0	5	14	90	0.00	29.596 
21:30	32.4	28.5	32.4	68	23.0	4	13	112	0.00	29.602 
21:35	32.2	28.3	32.2	69	23.2	4	13	112	0.00	29.602 
21:40	32.2	25.7	32.2	70	23.5	7	21	90	0.00	29.602 
21:45	31.9	28.0	31.9	71	23.6	4	11	112	0.00	29.605 
21:50	31.8	27.8	31.8	73	24.1	4	16	112	0.00	29.605 
21:55	31.6	27.6	31.6	73	24.0	4	14	112	0.00	29.605 
22:00	31.5	31.5	31.5	73	23.9	3	9	112	0.00	29.605 
22:05	31.5	31.5	31.5	74	24.2	2	9	90	0.00	29.605 
22:10	31.3	31.3	31.3	74	24.0	1	10	90	0.00	29.605 
22:15	31.2	31.2	31.2	74	23.9	3	7	112	0.00	29.599 
22:20	31.0	26.9	31.0	75	24.0	4	11	112	0.00	29.599 
22:25	30.7	30.7	30.7	77	24.4	3	9	45	0.00	29.599 
22:30	30.4	30.4	30.4	79	24.7	3	9	90	0.00	29.590 
22:35	30.0	30.0	30.0	81	24.9	3	8	90	0.00	29.590 
22:40	29.8	29.8	29.8	83	25.3	3	7	68	0.00	29.590 
22:45	29.5	29.5	29.5	84	25.3	2	6	22	0.00	29.587 
22:50	29.4	29.4	29.4	85	25.5	2	7	90	0.00	29.587 
22:55	29.4	29.4	29.4	86	25.7	2	10	90	0.00	29.587 
23:00	29.3	29.3	29.3	86	25.6	2	8	68	0.00	29.588 
23:05	29.3	29.3	29.3	87	25.9	2	7	45	0.00	29.588 
23:10	29.3	29.3	29.3	87	25.9	2	6	90	0.00	29.588 
23:15	29.1	29.1	29.1	88	26.0	2	5	112	0.00	29.584 
23:20	29.1	29.1	29.1	88	26.0	2	5	90	0.00	29.584 
23:25	29.0	29.0	29.0	88	25.9	2	6	90	0.00	29.584 
23:30	29.0	29.0	29.0	89	26.2	2	7	45	0.00	29.579 
23:35	28.8	28.8	28.8	89	26.0	2	6	45	0.00	29.579 
23:40	28.8	28.8	28.8	89	26.0	1	4	45	0.00	29.579 
23:45	28.8	28.8	28.8	89	26.0	2	6	22	0.00	29.582 
23:50	28.7	28.7	28.7	90	26.1	2	5	68	0.00	29.582 
23:55	28.7	28.7	28.7	90	26.1	2	5	90	0.00	29.582 

CoCoRaHS
IN-AL-39
A2 Web Hosting
Creative Commons License
GoDaddy
search engine by freefind advanced

loaded 2018-11-20 03:42:19 • last modified 2010-11-18 10:43:29
Privacy PolicyDisclaimer
• wx.awcolley.com is powered by PmWiki v.2002016 •
• all content (unless otherwise noted) © 2018 A W Colley